Latest Weather Observations for Moruya Airport

IDN60801

Issued at 6:33 pm EST Sunday 24 July 2016 (issued every 30 minutes, with the page automatically refreshed every 10 minutes)

About weather observations | Map of weather stations | Latest weather observations for NSW | Other Formats
Station Details ID: 069148 Name: MORUYA AIRPORT AWS Lat: -35.90 Lon: 150.14 Height: 4.0 m
Data from the previous 72 hours. | See also: Recent months at Moruya Airport
Date/Time
EST
Temp
°C
App
Temp
°C
Dew
Point
°C
Rel
Hum
%
Delta-T
°C
Wind Press
QNH
hPa
Press
MSL
hPa
Rain since
9am
mm
Dir  Spd
km/h
Gust
km/h
Spd
kts
Gust
kts
24/06:30pm 6.1 3.1 0.6 68 2.1 NNW 6 9 3 5 1010.3 1010.3 0.0
24/06:00pm 7.3 3.7 0.7 63 2.6 NNW 9 13 5 7 1009.9 1009.9 0.0
24/05:30pm 7.3 4.0 2.2 70 2.1 NNW 9 11 5 6 1009.6 1009.6 0.0
24/05:00pm 9.4 6.1 0.1 52 3.7 N 7 9 4 5 1009.1 1009.1 0.0
24/04:30pm 12.2 8.7 -1.7 38 5.5 W 7 11 4 6 1009.7 1009.7 0.0
24/04:00pm 13.6 8.9 -1.9 34 6.2 WNW 13 22 7 12 1009.7 1009.7 0.0
24/03:30pm 14.2 9.6 -1.4 34 6.3 WNW 13 19 7 10 1009.2 1009.2 0.0
24/03:00pm 14.4 9.0 -1.2 34 6.4 NW 17 26 9 14 1009.2 1009.2 0.0
24/02:30pm 14.7 9.2 -1.8 32 6.7 NNW 17 30 9 16 1009.7 1009.7 0.0
24/02:00pm 14.9 9.8 -2.1 31 6.9 WNW 15 22 8 12 1010.2 1010.2 0.0
24/01:30pm 15.3 10.5 -2.6 29 7.2 NW 13 28 7 15 1010.4 1010.4 0.0
24/01:00pm 15.4 11.0 -2.1 30 7.1 NNW 11 20 6 11 1011.0 1011.0 0.0
24/12:30pm 14.5 9.6 -3.3 29 7.0 WNW 13 20 7 11 1011.6 1011.6 0.0
24/12:00pm 14.3 9.6 -2.1 32 6.6 WNW 13 20 7 11 1012.2 1012.2 0.0
24/11:30am 13.7 9.4 -1.9 34 6.2 NW 11 17 6 9 1012.7 1012.7 0.0
24/11:00am 13.5 9.3 -0.9 37 5.9 NW 11 17 6 9 1013.4 1013.4 0.0
24/10:30am 12.3 7.3 -0.9 40 5.3 WNW 15 20 8 11 1013.8 1013.8 0.0
24/10:00am 11.6 7.4 -1.2 41 5.1 WNW 11 17 6 9 1014.0 1014.0 0.0
24/09:30am 10.3 6.2 -0.2 48 4.2 WNW 11 20 6 11 1014.0 1014.0 0.0
24/09:00am 8.5 5.3 0.5 57 3.2 NNW 7 11 4 6 1014.2 1014.2 0.0
24/08:30am 7.3 5.5 1.4 66 2.4 CALM 0 6 0 3 1013.9 1013.9 0.0
24/08:00am 4.3 1.1 1.0 79 1.3 WNW 7 9 4 5 1013.9 1013.9 0.0
24/07:30am 2.0 -1.4 -0.9 81 1.0 NNW 7 11 4 6 1013.7 1013.7 0.0
24/07:00am 3.0 -0.8 -0.5 78 1.3 W 9 15 5 8 1013.5 1013.5 0.0
24/06:30am 3.8 -0.1 -1.2 70 1.8 W 9 13 5 7 1013.3 1013.3 0.0
24/06:00am 3.5 -0.3 -0.7 74 1.5 WNW 9 13 5 7 1013.2 1013.2 0.0
24/05:30am 3.2 -0.6 -1.0 74 1.5 W 9 11 5 6 1012.9 1012.9 0.0
24/05:00am 3.9 0.1 -0.9 71 1.8 W 9 15 5 8 1012.7 1012.7 0.0
24/04:30am 2.2 -1.4 0.7 90 0.6 W 9 11 5 6 1012.5 1012.5 0.0
24/04:00am -0.1 -3.1 -1.5 90 0.5 W 4 7 2 4 1012.4 1012.4 0.0
24/03:30am -0.1 -2.7 -1.7 89 0.5 N 2 6 1 3 1012.2 1012.2 0.0
24/03:00am 0.3 -3.0 -1.4 88 0.6 WSW 6 7 3 4 1012.0 1012.0 0.0
24/02:30am 1.6 -1.6 -0.2 88 0.7 W 6 7 3 4 1011.9 1011.9 0.0
24/02:00am 0.9 -2.4 -1.0 87 0.7 WNW 6 7 3 4 1011.7 1011.7 0.0
24/01:30am 1.4 -2.4 -0.8 85 0.8 WNW 9 13 5 7 1011.6 1011.6 0.0
24/01:00am 1.7 -1.1 -0.7 84 0.9 NNE 4 9 2 5 1011.7 1011.7 0.0
24/12:30am 2.7 -0.7 -0.4 80 1.1 WNW 7 9 4 5 1011.3 1011.3 0.0
24/12:00am 2.3 -1.2 -1.0 79 1.2 WNW 7 11 4 6 1011.2 1011.2 0.0
 
Date/Time
EST
Temp
°C
App
Temp
°C
Dew
Point
°C
Rel
Hum
%
Delta-T
°C
Wind Press
QNH
hPa
Press
MSL
hPa
Rain since
9am
mm
Dir  Spd
km/h
Gust
km/h
Spd
kts
Gust
kts
23/11:30pm 2.9 -0.1 -1.6 72 1.6 WSW 4 9 2 5 1011.1 1011.1 0.0
23/11:00pm 3.9 0.1 -0.7 72 1.7 NW 9 11 5 6 1010.7 1010.7 0.0
23/10:30pm 5.1 2.2 -1.1 64 2.3 NW 4 7 2 4 1010.5 1010.5 0.0
23/10:00pm 7.3 2.9 -2.7 49 3.7 NNW 11 15 6 8 1010.1 1010.1 0.0
23/09:30pm 8.2 4.6 -3.6 43 4.3 NW 6 9 3 5 1009.7 1009.7 0.0
23/09:00pm 10.5 5.5 -4.7 34 5.5 WSW 13 20 7 11 1009.5 1009.5 0.0
23/08:30pm 10.5 5.5 -4.3 35 5.4 W 13 20 7 11 1009.4 1009.4 0.0
23/08:00pm 9.9 5.0 -3.7 38 5.0 W 13 20 7 11 1008.7 1008.7 0.0
23/07:30pm 8.9 4.5 -2.4 45 4.2 WNW 11 19 6 10 1008.1 1008.1 0.0
23/07:00pm 7.3 4.0 0.3 61 2.8 NW 7 9 4 5 1007.8 1007.8 0.0
23/06:30pm 8.4 5.1 -1.4 50 3.7 WNW 6 9 3 5 1007.2 1007.2 0.0
23/06:00pm 9.9 6.3 -3.7 38 5.0 WNW 6 9 3 5 1006.3 1006.3 0.0
23/05:30pm 12.2 7.5 -4.8 30 6.3 WSW 11 22 6 12 1005.6 1005.6 0.0
23/05:00pm 13.3 6.9 -5.3 27 6.9 W 20 32 11 17 1004.8 1004.8 0.0
23/04:30pm 14.4 8.6 -4.8 26 7.2 WSW 17 30 9 16 1003.9 1003.9 0.0
23/04:00pm 15.6 9.8 -4.3 25 7.7 WSW 17 33 9 18 1003.1 1003.1 0.0
23/03:30pm 16.6 11.4 -2.5 27 7.8 W 15 26 8 14 1002.3 1002.3 0.0
23/03:00pm 16.9 10.8 -2.2 27 7.9 W 20 35 11 19 1001.4 1001.4 0.0
23/02:30pm 17.3 11.1 -2.9 25 8.2 WNW 20 39 11 21 1000.6 1000.6 0.0
23/02:00pm 17.6 11.0 -3.2 24 8.5 WNW 22 39 12 21 1000.0 1000.0 0.0
23/01:30pm 17.9 11.8 -2.4 25 8.4 W 20 33 11 18 999.7 999.7 0.0
23/01:00pm 18.0 11.9 -2.3 25 8.5 WNW 20 33 11 18 999.3 999.3 0.0
23/12:30pm 17.9 12.1 -1.3 27 8.1 WNW 19 32 10 17 998.9 998.9 0.0
23/12:00pm 17.3 11.2 -2.4 26 8.1 WNW 20 30 11 16 999.0 999.0 0.0
23/11:30am 17.0 12.3 1.0 34 7.0 WNW 15 24 8 13 998.7 998.7 0.0
23/11:00am 15.9 11.0 2.0 39 6.2 NW 17 30 9 16 998.7 998.7 0.0
23/10:30am 15.5 10.1 2.3 41 5.9 NW 20 33 11 18 998.5 998.5 0.0
23/10:00am 14.8 8.9 1.7 41 5.8 NW 22 35 12 19 998.3 998.3 0.0
23/09:30am 14.6 9.6 1.5 41 5.7 WNW 17 30 9 16 998.3 998.3 0.0
23/09:00am 13.8 8.1 0.8 41 5.6 WNW 20 33 11 18 997.5 997.4 0.4
23/08:30am 13.5 8.4 0.5 41 5.5 WNW 17 28 9 15 997.2 997.1 0.4
23/08:00am 13.1 7.3 -0.2 40 5.5 NW 20 35 11 19 996.8 996.7 0.4
23/07:30am 12.7 8.1 -0.9 39 5.5 NW 13 20 7 11 997.0 996.9 0.4
23/07:00am 12.9 7.6 -0.7 39 5.6 WNW 17 28 9 15 996.8 996.7 0.4
23/06:30am 12.9 8.1 0.3 42 5.2 NW 15 24 8 13 996.7 996.6 0.4
23/06:00am 12.8 8.6 1.5 46 4.9 NW 13 24 7 13 995.9 995.9 0.4
23/05:30am 13.3 8.4 2.2 47 4.8 NNW 17 30 9 16 995.0 995.0 0.4
23/05:00am 13.8 9.5 3.3 49 4.8 NNW 15 26 8 14 994.7 994.7 0.4
23/04:30am 13.9 9.3 3.7 50 4.6 NNW 17 33 9 18 994.3 994.3 0.4
23/04:00am 14.5 9.9 3.9 49 4.9 NW 17 26 9 14 994.4 994.4 0.4
23/03:30am 14.9 9.9 3.7 47 5.1 NNW 19 35 10 19 993.9 993.9 0.4
23/03:00am 15.5 11.4 4.6 48 5.1 NNW 15 22 8 12 994.0 994.0 0.4
23/02:30am 15.8 12.8 4.2 46 5.4 NW 9 17 5 9 994.1 994.1 0.4
23/02:00am 16.8 12.5 3.5 41 6.2 NW 15 24 8 13 994.3 994.3 0.4
23/01:30am 17.3 12.4 2.1 36 6.8 NW 17 41 9 22 993.8 993.8 0.4
23/01:00am 17.6 13.1 2.0 35 7.1 NW 15 26 8 14 993.6 993.6 0.4
23/12:30am 17.9 13.1 2.6 36 7.0 WNW 17 35 9 19 993.8 993.8 0.4
23/12:08am 18.3 11.5 3.0 36 7.1 W 28 52 15 28 994.3 994.3 0.4
23/12:00am 17.6 12.1 4.2 41 6.4 W 22 37 12 20 994.4 994.4 0.4
 
Date/Time
EST
Temp
°C
App
Temp
°C
Dew
Point
°C
Rel
Hum
%
Delta-T
°C
Wind Press
QNH
hPa
Press
MSL
hPa
Rain since
9am
mm
Dir  Spd
km/h
Gust
km/h
Spd
kts
Gust
kts
22/11:30pm 16.2 13.1 8.7 61 3.8 WSW 15 26 8 14 994.4 994.4 0.4
22/11:00pm 14.7 13.8 12.7 88 1.1 NW 9 20 5 11 994.2 994.2 0.4
22/10:30pm 14.0 13.5 12.7 92 0.7 NNW 7 11 4 6 994.4 994.4 0.4
22/10:00pm 14.9 14.8 13.3 90 0.9 WSW 6 13 3 7 994.8 994.8 0.4
22/09:30pm 15.0 15.0 13.5 91 0.8 ENE 6 9 3 5 995.0 995.0 0.4
22/09:00pm 15.8 15.9 14.0 89 1.0 NNW 6 9 3 5 995.4 995.4 0.4
22/08:30pm 16.4 16.6 14.1 86 1.3 NW 6 9 3 5 995.3 995.3 0.4
22/08:00pm 17.4 17.9 14.9 85 1.5 WSW 6 15 3 8 995.3 995.3 0.4
22/07:30pm 17.3 16.3 15.5 89 1.1 SW 15 19 8 10 995.1 995.1 0.4
22/07:00pm 16.8 17.6 14.8 88 1.2 S 4 11 2 6 994.6 994.6 0.4
22/06:33pm 17.3 17.6 14.6 84 1.6 ENE 6 9 3 5 994.8 994.8 0.4
22/06:30pm 17.7 18.0 15.0 84 1.6 ENE 7 11 4 6 994.8 994.8 0.4
22/06:23pm 17.8 17.8 15.1 84 1.6 ENE 9 13 5 7 994.8 994.8 0.4
22/06:00pm 18.5 19.7 14.8 79 2.2 WNW 2 7 1 4 994.5 994.5 0.4
22/05:30pm 19.1 18.8 15.4 79 2.2 NNW 11 17 6 9 994.7 994.7 0.4
22/05:00pm 20.4 18.6 14.5 69 3.5 NNW 17 32 9 17 994.5 994.5 0.2
22/04:30pm 21.7 20.5 13.9 61 4.5 NNW 13 33 7 18 994.0 994.0 0.0
22/04:00pm 21.8 20.5 13.7 60 4.7 NNW 13 20 7 11 994.1 994.1 0.0
22/03:30pm 23.2 20.8 12.5 51 6.1 NNW 17 32 9 17 993.8 993.8 0.0
22/03:00pm 24.0 19.8 12.3 48 6.7 NW 26 57 14 31 994.1 994.1 0.0
22/02:30pm 24.0 19.8 12.3 48 6.7 NW 26 52 14 28 994.8 994.8 0.0
22/02:04pm 24.2 19.6 12.2 47 6.8 NW 28 54 15 29 995.0 995.0 0.0
22/02:00pm 24.1 19.8 12.1 47 6.9 NW 26 44 14 24 995.0 995.0 0.0
22/01:30pm 24.2 18.6 12.2 47 6.8 NW 33 59 18 32 995.5 995.5 0.0
22/01:00pm 25.1 20.5 12.3 45 7.4 NW 28 56 15 30 996.3 996.2 0.0
22/12:30pm 25.2 20.3 12.4 45 7.4 NW 30 57 16 31 997.0 996.9 0.0
22/12:01pm 24.0 20.2 12.3 48 6.7 NW 24 56 13 30 997.4 997.3 0.0
22/12:00pm 24.0 20.5 12.3 48 6.7 NNW 22 54 12 29 997.5 997.4 0.0
22/11:30am 23.9 20.3 13.2 51 6.2 N 24 41 13 22 998.1 998.1 0.0
22/11:00am 22.5 18.8 12.7 54 5.6 NNW 24 41 13 22 999.1 999.1 0.0
22/10:30am 22.5 17.6 12.4 52 5.7 NW 30 52 16 28 999.7 999.7 0.0
22/10:24am 22.3 17.7 12.3 53 5.7 NW 28 46 15 25 999.8 999.8 0.0
22/10:00am 22.3 18.9 12.5 53 5.6 NNW 22 37 12 20 1000.3 1000.3 0.0
22/09:30am 18.8 15.2 13.0 69 3.3 NNE 24 37 13 20 1000.9 1000.9 0.0
22/09:00am 18.4 14.5 12.2 67 3.5 NNE 24 44 13 24 1001.9 1001.9 0.0
22/08:30am 17.8 13.2 12.3 70 3.0 NNE 28 33 15 18 1002.9 1002.9 0.0
22/08:00am 16.9 14.9 11.6 71 2.9 N 13 19 7 10 1003.7 1003.7 0.0
22/07:30am 16.2 13.6 10.7 70 2.9 NNE 15 22 8 12 1004.0 1004.0 0.0
22/07:00am 16.4 14.5 10.5 68 3.1 N 11 15 6 8 1004.5 1004.5 0.0
22/06:30am 16.9 14.2 10.5 66 3.4 N 15 20 8 11 1005.3 1005.3 0.0
22/06:00am 17.6 14.4 10.0 61 4.0 N 17 24 9 13 1006.1 1006.1 0.0
22/05:30am 18.2 15.1 9.0 55 4.8 NNW 15 24 8 13 1005.9 1005.9 0.0
22/05:00am 18.2 14.3 9.3 56 4.7 WNW 20 37 11 20 1006.3 1006.3 0.0
22/04:30am 17.6 15.0 9.2 58 4.4 WNW 13 22 7 12 1006.8 1006.8 0.0
22/04:00am 17.0 15.3 9.7 62 3.8 WNW 9 17 5 9 1007.7 1007.7 0.0
22/03:30am 16.5 14.4 9.7 64 3.6 NW 11 22 6 12 1008.3 1008.3 0.0
22/03:00am 12.3 11.1 10.2 87 1.1 NW 7 11 4 6 1008.3 1008.3 0.0
22/02:30am 10.6 10.1 9.4 92 0.6 NNW 2 7 1 4 1008.6 1008.6 0.0
22/02:00am 11.0 9.8 9.4 90 0.8 N 6 9 3 5 1009.4 1009.4 0.0
22/01:30am 11.4 10.2 9.7 89 0.9 NNE 6 7 3 4 1010.0 1010.0 0.0
22/01:00am 11.7 10.3 9.6 87 1.1 NNW 7 11 4 6 1010.2 1010.2 0.0
22/12:30am 11.6 10.8 9.5 87 1.1 N 4 7 2 4 1010.6 1010.6 0.0
22/12:00am 11.2 9.5 8.4 83 1.4 N 7 11 4 6 1010.9 1010.9 0.0
 
Date/Time
EST
Temp
°C
App
Temp
°C
Dew
Point
°C
Rel
Hum
%
Delta-T
°C
Wind Press
QNH
hPa
Press
MSL
hPa
Rain since
9am
mm
Dir  Spd
km/h
Gust
km/h
Spd
kts
Gust
kts
21/11:30pm 12.0 11.1 10.6 91 0.7 NNW 6 11 3 6 1011.4 1011.4 0.0
21/11:00pm 10.5 10.1 9.6 94 0.5 NNW 2 7 1 4 1011.9 1011.9 0.0
21/10:30pm 11.1 9.5 10.2 94 0.5 NW 9 11 5 6 1011.6 1011.6 0.0
21/10:00pm 11.5 10.5 10.4 93 0.6 SSE 6 11 3 6 1012.2 1012.2 0.0
21/09:30pm 12.1 12.3 10.7 91 0.7 CALM 0 7 0 4 1012.5 1012.5 0.0
21/09:00pm 12.7 11.7 11.1 90 0.8 NW 7 11 4 6 1012.9 1012.9 0.0
21/08:30pm 13.8 12.1 12.5 92 0.7 NNE 13 17 7 9 1013.0 1013.0 0.0
21/08:00pm 14.3 13.8 12.7 90 0.9 NNE 7 13 4 7 1013.1 1013.1 0.0
21/07:30pm 15.0 14.0 13.5 91 0.8 N 11 15 6 8 1013.5 1013.5 0.0
21/07:00pm 14.6 13.8 12.8 89 1.0 NNE 9 11 5 6 1013.4 1013.4 0.0

Other Formats:

Comma delimited format used in spreadsheet applications
http://www.bom.gov.au/fwo/IDN60801/IDN60801.95937.axf

JavaScript Object Notation format (JSON) in row-major order
http://www.bom.gov.au/fwo/IDN60801/IDN60801.95937.json